Time;durP1;ratioP1;P1;durP2;ratioP2;P2;SDS_P1;SDS_P2;PMS_P1;PMS_P2;Temp;Humidity;BMP_temperature;BMP_pressure;BME280_temperature;BME280_humidity;BME280_pressure;Samples;Min_cycle;Max_cycle;Signal;HPM_P1;HPM_P2
2022/04/27 00:00:20;;;;;;;12.57;6.05;;;8.50;99.90;;;;;;5062430;28;20053;-73
2022/04/27 00:02:46;;;;;;;11.95;5.85;;;8.50;99.90;;;;;;5064416;28;20131;-73
2022/04/27 00:05:12;;;;;;;15.57;6.65;;;8.50;99.90;;;;;;5068311;28;20435;-72
2022/04/27 00:07:37;;;;;;;11.05;5.68;;;8.60;99.90;;;;;;5046944;28;20040;-71
2022/04/27 00:10:05;;;;;;;11.95;5.63;;;8.60;99.90;;;;;;5048323;28;20619;-72
2022/04/27 00:12:33;;;;;;;14.25;6.43;;;8.60;99.90;;;;;;5055694;28;20041;-73
2022/04/27 00:14:59;;;;;;;14.20;6.18;;;8.60;99.90;;;;;;5059265;28;20048;-73
2022/04/27 00:17:25;;;;;;;12.02;7.05;;;8.60;99.90;;;;;;5062723;28;20045;-72
2022/04/27 00:19:50;;;;;;;11.73;6.55;;;8.60;99.90;;;;;;5062804;28;20288;-72
2022/04/27 00:22:16;;;;;;;23.02;8.07;;;8.60;99.90;;;;;;5059652;28;20431;-72
2022/04/27 00:24:41;;;;;;;11.15;6.55;;;8.60;99.90;;;;;;5058184;28;20392;-73
2022/04/27 00:27:07;;;;;;;11.35;6.53;;;8.60;99.90;;;;;;5042846;28;20063;-72
2022/04/27 00:29:33;;;;;;;14.38;7.55;;;8.60;99.90;;;;;;5044154;28;20045;-72
2022/04/27 00:31:58;;;;;;;16.63;7.38;;;8.50;99.90;;;;;;5033831;28;20048;-72
2022/04/27 00:34:24;;;;;;;13.23;6.97;;;8.50;99.90;;;;;;5050928;28;20044;-72
2022/04/27 00:36:50;;;;;;;9.82;7.00;;;8.60;99.90;;;;;;5034903;28;20064;-72
2022/04/27 00:39:17;;;;;;;14.85;5.95;;;8.50;99.90;;;;;;5036101;28;20041;-72
2022/04/27 00:41:59;;;;;;;9.00;5.80;;;8.60;99.90;;;;;;5054271;28;20520;-72
2022/04/27 00:44:34;;;;;;;13.13;6.15;;;8.60;99.90;;;;;;5061179;28;20407;-72
2022/04/27 00:47:02;;;;;;;10.32;5.13;;;8.60;99.90;;;;;;5034616;28;20086;-72
2022/04/27 00:49:29;;;;;;;13.55;5.95;;;8.40;99.90;;;;;;5036063;28;20052;-72
2022/04/27 00:51:55;;;;;;;14.38;5.28;;;9.10;99.90;;;;;;5054918;28;20072;-73
2022/04/27 00:54:22;;;;;;;9.80;5.18;;;8.60;99.90;;;;;;5034008;28;20036;-71
2022/04/27 00:56:51;;;;;;;17.75;5.40;;;8.60;99.90;;;;;;5062306;28;20052;-72
2022/04/27 00:59:21;;;;;;;12.68;4.65;;;8.70;99.90;;;;;;5059845;28;20353;-73
2022/04/27 01:01:47;;;;;;;13.82;4.80;;;8.70;99.90;;;;;;5038985;28;20458;-72
2022/04/27 01:04:12;;;;;;;12.55;5.03;;;8.80;99.90;;;;;;5047066;28;20060;-73
2022/04/27 01:06:39;;;;;;;14.77;5.22;;;8.80;99.90;;;;;;5040920;28;20059;-73
2022/04/27 01:09:08;;;;;;;14.27;4.63;;;8.80;99.90;;;;;;5054760;28;20426;-72
2022/04/27 01:11:35;;;;;;;12.15;5.18;;;8.80;99.90;;;;;;5058619;28;20181;-72
2022/04/27 01:14:00;;;;;;;10.02;5.32;;;8.90;99.90;;;;;;5032112;28;20267;-72
2022/04/27 01:16:26;;;;;;;11.15;4.60;;;8.90;99.90;;;;;;5065410;28;20055;-72
2022/04/27 01:18:52;;;;;;;11.43;5.05;;;8.90;99.90;;;;;;5051843;28;20048;-72
2022/04/27 01:21:18;;;;;;;9.00;4.95;;;8.90;99.90;;;;;;5034517;28;20040;-73
2022/04/27 01:23:44;;;;;;;18.02;5.15;;;8.90;99.90;;;;;;5051012;28;20051;-72
2022/04/27 01:26:10;;;;;;;11.43;4.95;;;8.90;99.90;;;;;;5051267;28;20264;-72
2022/04/27 01:28:37;;;;;;;10.43;4.78;;;8.90;99.90;;;;;;5030455;28;20049;-72
2022/04/27 01:31:04;;;;;;;10.75;4.63;;;8.90;99.90;;;;;;5035248;28;20055;-72
2022/04/27 01:33:34;;;;;;;12.98;5.68;;;8.90;99.90;;;;;;5060387;28;20500;-72
2022/04/27 01:36:04;;;;;;;12.68;5.38;;;8.90;99.90;;;;;;5047490;28;20040;-72
2022/04/27 01:38:38;;;;;;;11.63;4.78;;;8.90;99.90;;;;;;5057651;28;20119;-73
2022/04/27 01:41:04;;;;;;;10.68;5.25;;;8.90;99.90;;;;;;5033091;28;20083;-72
2022/04/27 01:43:30;;;;;;;13.43;5.25;;;8.90;99.90;;;;;;5052364;28;20395;-72
2022/04/27 01:45:56;;;;;;;11.82;4.88;;;9.00;99.90;;;;;;5050670;28;20049;-72
2022/04/27 01:48:22;;;;;;;12.77;4.10;;;9.00;99.90;;;;;;5048322;28;20047;-72
2022/04/27 01:50:47;;;;;;;10.07;5.28;;;9.00;99.90;;;;;;5058571;28;20059;-72
2022/04/27 01:55:58;;;;;;;10.82;5.50;;;8.90;99.90;;;;;;5055128;28;20181;-73
2022/04/27 01:58:24;;;;;;;8.95;4.85;;;8.90;99.90;;;;;;5033268;28;20124;-72
2022/04/27 02:00:50;;;;;;;10.20;5.03;;;8.90;99.90;;;;;;5058741;28;20644;-72
2022/04/27 02:03:18;;;;;;;7.55;4.40;;;8.90;99.90;;;;;;5038270;28;20049;-73
2022/04/27 02:05:47;;;;;;;12.93;4.60;;;8.90;99.90;;;;;;5013841;28;20493;-73
2022/04/27 02:08:13;;;;;;;10.85;4.07;;;8.90;99.90;;;;;;5046826;28;20049;-72
2022/04/27 02:10:39;;;;;;;8.13;4.15;;;9.00;99.90;;;;;;5040961;28;20412;-72
2022/04/27 02:13:06;;;;;;;10.48;4.40;;;9.00;99.90;;;;;;5011239;28;20044;-73
2022/04/27 02:15:32;;;;;;;9.43;4.70;;;9.00;99.90;;;;;;5036220;28;20045;-73
2022/04/27 02:17:58;;;;;;;7.15;3.88;;;9.00;99.90;;;;;;5022558;28;20092;-72
2022/04/27 02:20:24;;;;;;;10.15;4.63;;;9.00;99.90;;;;;;5048489;28;20554;-72
2022/04/27 02:22:51;;;;;;;7.10;4.22;;;9.00;99.90;;;;;;5041405;28;20046;-72
2022/04/27 02:25:17;;;;;;;9.40;4.28;;;9.00;99.90;;;;;;5020715;28;20072;-72
2022/04/27 02:27:43;;;;;;;8.07;3.83;;;9.00;99.90;;;;;;5031266;28;20065;-73
2022/04/27 02:30:09;;;;;;;8.75;4.55;;;9.00;99.90;;;;;;5030973;28;20364;-72
2022/04/27 02:32:36;;;;;;;11.20;4.05;;;9.10;99.90;;;;;;5010432;28;20036;-72
2022/04/27 02:35:02;;;;;;;10.18;3.75;;;9.10;99.90;;;;;;5032298;28;20049;-72
2022/04/27 02:37:28;;;;;;;13.15;4.22;;;9.10;99.90;;;;;;5033790;28;20033;-73
2022/04/27 02:39:53;;;;;;;11.68;4.43;;;9.10;99.90;;;;;;5017529;28;20045;-73
2022/04/27 02:42:19;;;;;;;9.73;3.88;;;9.10;99.90;;;;;;5019484;28;20343;-73
2022/04/27 02:44:45;;;;;;;10.73;4.03;;;9.10;99.90;;;;;;5025580;28;20037;-73
2022/04/27 02:47:10;;;;;;;6.80;3.63;;;9.10;99.90;;;;;;5031278;28;20037;-73
2022/04/27 02:52:20;;;;;;;6.50;3.50;;;9.10;99.90;;;;;;5030847;28;20042;-72
2022/04/27 02:54:46;;;;;;;11.18;4.05;;;9.00;99.90;;;;;;5041082;28;20356;-73
2022/04/27 02:57:12;;;;;;;7.13;3.53;;;9.10;99.90;;;;;;5031793;28;20049;-72
2022/04/27 02:59:37;;;;;;;13.20;3.65;;;9.00;99.90;;;;;;5044849;28;20044;-72
2022/04/27 03:02:03;;;;;;;6.40;3.40;;;9.00;99.90;;;;;;5043046;28;20547;-72
2022/04/27 03:04:29;;;;;;;9.25;3.95;;;9.00;99.90;;;;;;5065109;28;20057;-72
2022/04/27 03:06:55;;;;;;;5.78;3.55;;;9.00;99.90;;;;;;5063229;28;20447;-72
2022/04/27 03:09:20;;;;;;;7.65;3.35;;;9.00;99.90;;;;;;5050590;28;20120;-73
2022/04/27 03:11:46;;;;;;;9.27;4.15;;;9.10;99.90;;;;;;5043274;28;20044;-73
2022/04/27 03:14:11;;;;;;;8.70;3.33;;;9.00;99.90;;;;;;5049438;28;20120;-73
2022/04/27 03:16:37;;;;;;;6.13;3.40;;;9.00;99.90;;;;;;5056437;28;20248;-72
2022/04/27 03:19:03;;;;;;;6.28;3.00;;;9.20;99.90;;;;;;5061977;28;20044;-72
2022/04/27 03:21:29;;;;;;;7.97;3.15;;;9.00;99.90;;;;;;5062545;28;20334;-73
2022/04/27 03:23:56;;;;;;;9.63;3.28;;;9.00;99.90;;;;;;5057781;28;20121;-73
2022/04/27 03:26:22;;;;;;;9.00;3.00;;;9.00;99.90;;;;;;5053820;28;20436;-72
2022/04/27 03:28:47;;;;;;;12.60;3.20;;;9.00;99.90;;;;;;5065066;28;20063;-73
2022/04/27 03:31:13;;;;;;;8.98;3.03;;;9.00;99.90;;;;;;5050171;28;20048;-72
2022/04/27 03:33:39;;;;;;;5.80;3.30;;;9.00;99.90;;;;;;5034047;28;20169;-72
2022/04/27 03:36:07;;;;;;;4.95;2.88;;;9.00;99.90;;;;;;5028898;28;20041;-73
2022/04/27 03:38:32;;;;;;;11.18;3.45;;;8.90;99.90;;;;;;5043781;28;20044;-72
2022/04/27 03:40:58;;;;;;;6.00;3.05;;;8.90;99.90;;;;;;5056549;28;20468;-73
2022/04/27 03:43:23;;;;;;;6.18;2.80;;;8.90;99.90;;;;;;5053766;28;20174;-72
2022/04/27 03:45:49;;;;;;;7.28;2.80;;;8.90;99.90;;;;;;5034209;28;20464;-72
2022/04/27 03:48:15;;;;;;;3.70;2.33;;;8.90;99.90;;;;;;5047333;28;20064;-72
2022/04/27 03:50:40;;;;;;;6.45;2.63;;;8.90;99.90;;;;;;5049738;28;20047;-73
2022/04/27 03:53:06;;;;;;;7.10;2.70;;;8.90;99.90;;;;;;5044798;28;20044;-73
2022/04/27 03:55:33;;;;;;;5.13;2.45;;;8.90;99.90;;;;;;5059393;28;20381;-74
2022/04/27 03:58:01;;;;;;;7.38;3.40;;;8.90;99.90;;;;;;5055315;28;20044;-73
2022/04/27 04:00:27;;;;;;;6.43;2.72;;;8.90;99.90;;;;;;5033733;28;20054;-73
2022/04/27 04:02:52;;;;;;;7.22;2.55;;;8.90;99.90;;;;;;5056489;28;20475;-73
2022/04/27 04:05:18;;;;;;;3.45;2.17;;;9.00;99.90;;;;;;5043351;28;20052;-74
2022/04/27 04:07:44;;;;;;;6.75;2.63;;;8.90;99.90;;;;;;5049270;28;20040;-73
2022/04/27 04:10:09;;;;;;;9.90;2.55;;;8.90;99.90;;;;;;5036256;28;20124;-73
2022/04/27 04:12:35;;;;;;;5.63;2.78;;;9.00;99.90;;;;;;5053529;28;20044;-73
2022/04/27 04:15:02;;;;;;;8.95;2.90;;;9.00;99.90;;;;;;5042748;28;20364;-73
2022/04/27 04:17:27;;;;;;;7.30;2.67;;;9.00;99.90;;;;;;5051225;28;20056;-73
2022/04/27 04:19:53;;;;;;;4.72;2.53;;;8.90;99.90;;;;;;5056180;28;20045;-73
2022/04/27 04:22:19;;;;;;;5.40;3.00;;;8.90;99.90;;;;;;5059808;28;20040;-73
2022/04/27 04:28:29;;;;;;;5.85;2.47;;;8.80;99.90;;;;;;5060741;28;20109;-73
2022/04/27 04:30:14;;;;;;;10.77;3.08;;;8.80;99.90;;;;;;5035583;28;20433;-73
2022/04/27 04:32:41;;;;;;;5.68;2.80;;;8.80;99.90;;;;;;5051193;28;20083;-73
2022/04/27 04:35:08;;;;;;;7.90;3.08;;;8.80;99.90;;;;;;5055811;28;20041;-73
2022/04/27 04:37:34;;;;;;;9.73;3.22;;;8.80;99.90;;;;;;5039794;28;20045;-73
2022/04/27 04:39:59;;;;;;;4.55;2.88;;;8.80;99.90;;;;;;5062706;28;20059;-74
2022/04/27 04:42:25;;;;;;;8.40;3.55;;;8.80;99.90;;;;;;5060922;28;20055;-73
2022/04/27 04:44:51;;;;;;;6.63;3.08;;;8.90;99.90;;;;;;5031864;28;20045;-73
2022/04/27 04:47:17;;;;;;;8.25;2.90;;;9.00;99.90;;;;;;5031750;28;20048;-73
2022/04/27 04:49:43;;;;;;;7.28;3.28;;;8.90;99.90;;;;;;5063226;28;20048;-73
2022/04/27 04:52:08;;;;;;;5.20;2.78;;;8.90;99.90;;;;;;5060058;28;20432;-73
2022/04/27 04:54:35;;;;;;;13.68;3.47;;;9.00;99.90;;;;;;5066106;28;20036;-73
2022/04/27 04:57:00;;;;;;;4.38;2.22;;;9.00;99.90;;;;;;5043373;28;20518;-74
2022/04/27 04:59:26;;;;;;;9.95;3.70;;;9.00;99.90;;;;;;5050875;28;20115;-73
2022/04/27 05:01:53;;;;;;;6.00;2.58;;;8.90;99.90;;;;;;5054828;28;20062;-73
2022/04/27 05:04:18;;;;;;;8.15;2.92;;;8.90;99.90;;;;;;5042145;28;20049;-74
2022/04/27 05:06:46;;;;;;;6.75;2.50;;;8.90;99.90;;;;;;5053041;28;20060;-74
2022/04/27 05:09:12;;;;;;;6.97;2.60;;;8.80;99.90;;;;;;5032336;28;21590;-74
2022/04/27 05:11:38;;;;;;;8.02;2.63;;;8.80;99.90;;;;;;5054539;28;20057;-74
2022/04/27 05:14:03;;;;;;;3.85;2.22;;;8.90;99.90;;;;;;5040577;28;20044;-74
2022/04/27 05:16:31;;;;;;;4.53;2.50;;;8.90;99.90;;;;;;5066512;28;20080;-74
2022/04/27 05:18:56;;;;;;;8.38;3.05;;;8.90;99.90;;;;;;5064615;28;20055;-74
2022/04/27 05:21:22;;;;;;;6.72;2.35;;;8.90;99.90;;;;;;5048854;28;20037;-74
2022/04/27 05:23:48;;;;;;;13.73;3.40;;;8.90;99.90;;;;;;5052257;28;20697;-74
2022/04/27 05:26:13;;;;;;;4.78;2.28;;;9.00;99.90;;;;;;5039659;28;20363;-74
2022/04/27 05:34:24;;;;;;;4.03;2.38;;;9.10;99.90;;;;;;5035133;28;20052;-74
2022/04/27 05:36:50;;;;;;;4.25;2.50;;;9.20;99.90;;;;;;5062510;28;20079;-74
2022/04/27 05:39:16;;;;;;;6.68;2.55;;;9.20;99.90;;;;;;5046998;28;20044;-74
2022/04/27 05:41:41;;;;;;;4.00;2.13;;;9.30;99.90;;;;;;5049709;28;20068;-74
2022/04/27 05:44:09;;;;;;;4.70;2.42;;;9.30;99.90;;;;;;5040720;28;20499;-74
2022/04/27 05:46:36;;;;;;;4.32;2.47;;;9.30;99.90;;;;;;5054242;28;20048;-74
2022/04/27 05:49:01;;;;;;;5.22;2.78;;;9.40;99.90;;;;;;5049084;28;20144;-74
2022/04/27 05:51:27;;;;;;;5.72;2.63;;;9.40;99.90;;;;;;5069631;28;20400;-74
2022/04/27 05:53:53;;;;;;;7.10;2.72;;;9.40;99.90;;;;;;5039133;28;20067;-73
2022/04/27 05:56:19;;;;;;;6.63;2.58;;;9.50;99.90;;;;;;5065008;28;20518;-74
2022/04/27 05:58:48;;;;;;;8.18;2.65;;;9.50;99.90;;;;;;5056025;28;20396;-74
2022/04/27 06:01:13;;;;;;;6.53;2.90;;;9.50;99.90;;;;;;5055043;28;20055;-73
2022/04/27 06:03:39;;;;;;;9.18;2.50;;;9.50;99.90;;;;;;5058336;28;20053;-74
2022/04/27 06:06:05;;;;;;;4.32;2.42;;;9.50;99.90;;;;;;5041674;28;20444;-74
2022/04/27 06:08:30;;;;;;;5.80;2.55;;;9.60;99.90;;;;;;5056507;28;20055;-74
2022/04/27 06:10:56;;;;;;;7.63;2.20;;;9.70;99.90;;;;;;5059069;28;20036;-75
2022/04/27 06:13:21;;;;;;;5.15;2.13;;;9.60;99.90;;;;;;5039027;28;20487;-74
2022/04/27 06:15:47;;;;;;;3.83;2.45;;;9.70;99.90;;;;;;5062495;28;20047;-74
2022/04/27 06:18:12;;;;;;;5.55;2.55;;;9.70;99.90;;;;;;5058272;28;20040;-74
2022/04/27 06:20:38;;;;;;;7.15;2.60;;;9.70;99.90;;;;;;5060339;28;20041;-73
2022/04/27 06:23:04;;;;;;;7.38;2.65;;;9.70;99.90;;;;;;5055535;28;20044;-74
2022/04/27 06:25:32;;;;;;;7.05;2.30;;;9.70;99.90;;;;;;5031759;28;20049;-74
2022/04/27 06:27:57;;;;;;;5.00;2.17;;;9.70;99.90;;;;;;5049332;28;20041;-74
2022/04/27 06:30:25;;;;;;;7.70;2.28;;;9.70;99.90;;;;;;5056469;28;20476;-74
2022/04/27 06:32:51;;;;;;;5.18;2.20;;;9.80;99.90;;;;;;5042859;28;20128;-73
2022/04/27 06:35:17;;;;;;;4.85;2.30;;;9.80;99.80;;;;;;5062820;28;20044;-72
2022/04/27 06:37:42;;;;;;;6.15;2.05;;;9.80;99.70;;;;;;5058188;28;20052;-73
2022/04/27 06:40:09;;;;;;;7.18;1.95;;;9.80;99.50;;;;;;5038175;28;20127;-74
2022/04/27 06:42:35;;;;;;;4.57;1.80;;;9.80;99.30;;;;;;5038054;28;20033;-73
2022/04/27 06:45:02;;;;;;;8.13;2.35;;;9.80;98.80;;;;;;5040353;28;20044;-73
2022/04/27 06:47:28;;;;;;;6.05;2.13;;;9.80;98.50;;;;;;5032557;28;20052;-73
2022/04/27 06:49:53;;;;;;;10.27;2.17;;;9.80;98.20;;;;;;5053091;28;20368;-73
2022/04/27 06:52:19;;;;;;;6.03;2.00;;;9.90;98.60;;;;;;5052465;28;20070;-73
2022/04/27 06:54:45;;;;;;;7.15;2.58;;;9.90;98.60;;;;;;5049655;28;20043;-73
2022/04/27 06:57:10;;;;;;;6.90;2.30;;;9.90;98.50;;;;;;5066640;28;20135;-73
2022/04/27 06:59:36;;;;;;;4.43;1.60;;;10.00;98.60;;;;;;5039917;28;20479;-74
2022/04/27 07:02:03;;;;;;;3.53;1.70;;;10.00;98.30;;;;;;5042028;28;20516;-73
2022/04/27 07:04:31;;;;;;;8.23;1.85;;;10.00;98.10;;;;;;5039900;28;20076;-73
2022/04/27 07:06:57;;;;;;;5.53;1.73;;;10.10;97.90;;;;;;5021501;28;20128;-73
2022/04/27 07:09:23;;;;;;;6.63;2.00;;;10.20;97.80;;;;;;5016996;28;20132;-73
2022/04/27 07:11:49;;;;;;;5.68;1.60;;;10.10;97.20;;;;;;5015415;28;20120;-73
2022/04/27 07:14:16;;;;;;;3.70;1.40;;;10.20;96.70;;;;;;5031166;28;20095;-74
2022/04/27 07:16:45;;;;;;;12.75;2.50;;;10.20;96.50;;;;;;5013601;28;20111;-73
2022/04/27 07:19:12;;;;;;;3.33;1.60;;;10.20;96.60;;;;;;5037871;28;20132;-73
2022/04/27 07:21:38;;;;;;;5.85;1.45;;;10.30;96.30;;;;;;5025694;28;20140;-72
2022/04/27 07:24:05;;;;;;;4.10;1.42;;;10.30;95.90;;;;;;5036655;28;20042;-73
2022/04/27 07:26:31;;;;;;;8.55;1.95;;;10.40;96.00;;;;;;5037853;28;20208;-72
2022/04/27 07:28:57;;;;;;;3.92;1.92;;;10.30;95.60;;;;;;5043741;28;20144;-72
2022/04/27 07:31:23;;;;;;;4.45;1.52;;;10.30;95.60;;;;;;5030684;28;20053;-72
2022/04/27 07:33:49;;;;;;;6.13;2.20;;;10.40;95.60;;;;;;5030705;28;20048;-72
2022/04/27 07:36:14;;;;;;;3.70;1.80;;;10.40;95.50;;;;;;5033573;28;20473;-72
2022/04/27 07:38:40;;;;;;;8.13;1.63;;;10.40;95.30;;;;;;5022588;28;20421;-72
2022/04/27 07:41:07;;;;;;;8.20;2.15;;;10.40;95.10;;;;;;5021712;28;20556;-73
2022/04/27 07:43:32;;;;;;;5.10;1.70;;;10.40;95.10;;;;;;5012904;28;20216;-72
2022/04/27 07:45:58;;;;;;;11.25;2.38;;;10.40;95.00;;;;;;5021123;28;20266;-73
2022/04/27 07:48:24;;;;;;;4.68;1.52;;;10.50;95.20;;;;;;5028157;28;20107;-73
2022/04/27 07:50:49;;;;;;;4.05;1.30;;;10.50;94.90;;;;;;5035364;28;20041;-73
2022/04/27 07:53:15;;;;;;;9.05;1.83;;;10.50;94.70;;;;;;5013146;28;20139;-73
2022/04/27 07:55:41;;;;;;;7.05;1.50;;;10.60;94.50;;;;;;5035252;28;20529;-73
2022/04/27 07:58:06;;;;;;;9.82;1.63;;;10.50;94.40;;;;;;5019498;28;20040;-73
2022/04/27 08:00:32;;;;;;;8.23;2.05;;;10.50;94.30;;;;;;5013690;28;20045;-73
2022/04/27 08:02:58;;;;;;;5.13;1.85;;;10.50;94.40;;;;;;5035880;28;20117;-72
2022/04/27 08:05:24;;;;;;;7.90;2.00;;;10.50;94.00;;;;;;5047461;28;20053;-72
2022/04/27 08:07:49;;;;;;;7.95;1.95;;;10.50;94.00;;;;;;5038186;28;20059;-72
2022/04/27 08:10:17;;;;;;;6.07;1.80;;;10.40;94.30;;;;;;5033720;28;20064;-72
2022/04/27 08:12:46;;;;;;;8.73;1.65;;;10.40;94.50;;;;;;5027268;28;20083;-73
2022/04/27 08:15:13;;;;;;;6.28;1.80;;;10.40;94.60;;;;;;5010902;28;20108;-73
2022/04/27 08:18:06;;;;;;;6.47;1.77;;;10.40;94.70;;;;;;5010025;28;20057;-73
2022/04/27 08:23:23;;;;;;;8.52;2.58;;;10.50;94.90;;;;;;5048401;28;20049;-73
2022/04/27 08:25:49;;;;;;;7.40;2.15;;;10.40;95.00;;;;;;5032067;28;20053;-73
2022/04/27 08:28:16;;;;;;;7.65;2.33;;;10.50;95.50;;;;;;5013262;28;20056;-74
2022/04/27 08:30:44;;;;;;;12.45;2.40;;;10.50;95.50;;;;;;5012937;28;20145;-74
2022/04/27 08:33:11;;;;;;;30.52;3.42;;;10.60;95.70;;;;;;5016649;28;20042;-73
2022/04/27 08:35:37;;;;;;;10.57;2.40;;;10.60;95.90;;;;;;5032260;28;20151;-74
2022/04/27 08:38:04;;;;;;;16.30;3.30;;;10.60;95.80;;;;;;5027549;28;20049;-73
2022/04/27 08:40:30;;;;;;;8.90;2.22;;;10.70;96.00;;;;;;5026122;28;20531;-74
2022/04/27 08:42:57;;;;;;;12.25;2.63;;;10.70;96.00;;;;;;5030216;28;20072;-73
2022/04/27 08:45:23;;;;;;;9.80;2.20;;;10.70;96.10;;;;;;5013398;28;20042;-73
2022/04/27 08:47:50;;;;;;;10.48;2.88;;;10.70;96.40;;;;;;5013636;28;20119;-74
2022/04/27 08:50:26;;;;;;;15.15;2.50;;;10.70;96.40;;;;;;5049832;28;20114;-74
2022/04/27 08:52:52;;;;;;;10.65;2.60;;;10.80;96.60;;;;;;5051367;28;20559;-74
2022/04/27 08:55:18;;;;;;;5.80;2.33;;;10.90;96.60;;;;;;5030516;28;20064;-74
2022/04/27 08:57:45;;;;;;;12.65;2.85;;;10.90;96.80;;;;;;5029608;28;20575;-73
2022/04/27 09:00:16;;;;;;;14.52;2.63;;;11.00;97.00;;;;;;5027663;28;20539;-74
2022/04/27 09:02:42;;;;;;;9.95;2.75;;;11.10;97.00;;;;;;5039594;28;20085;-74
2022/04/27 09:05:17;;;;;;;16.05;3.40;;;11.10;96.90;;;;;;5050773;28;20179;-74
2022/04/27 09:07:56;;;;;;;11.13;2.45;;;11.10;96.80;;;;;;5050045;28;20144;-74
2022/04/27 09:10:24;;;;;;;9.25;2.42;;;11.10;96.90;;;;;;5034816;28;20045;-74
2022/04/27 09:12:56;;;;;;;13.98;2.50;;;11.10;97.00;;;;;;5035205;28;20049;-73
2022/04/27 09:15:23;;;;;;;13.57;2.80;;;11.10;96.90;;;;;;5030454;28;20045;-73
2022/04/27 09:20:47;;;;;;;13.25;2.63;;;11.10;97.10;;;;;;5030881;28;20036;-74
2022/04/27 09:23:26;;;;;;;15.57;2.58;;;11.10;97.10;;;;;;5035453;28;20049;-74
2022/04/27 09:25:55;;;;;;;11.80;4.18;;;11.00;96.80;;;;;;5037316;28;20045;-73
2022/04/27 09:28:30;;;;;;;19.05;3.15;;;11.00;97.10;;;;;;5032939;28;20045;-74
2022/04/27 09:30:57;;;;;;;9.05;1.98;;;10.90;97.00;;;;;;5036791;28;20041;-74
2022/04/27 09:33:52;;;;;;;10.07;2.40;;;10.80;97.00;;;;;;5046601;28;20409;-74
2022/04/27 09:36:25;;;;;;;14.82;2.58;;;10.90;96.90;;;;;;5048720;28;20053;-73
2022/04/27 09:38:53;;;;;;;9.43;2.60;;;10.90;96.90;;;;;;5032062;28;20412;-73
2022/04/27 09:41:39;;;;;;;12.55;2.92;;;11.00;96.90;;;;;;5029859;28;20441;-74
2022/04/27 09:44:04;;;;;;;9.95;1.98;;;11.00;96.70;;;;;;5028709;28;20045;-74
2022/04/27 09:46:30;;;;;;;18.25;2.80;;;11.00;96.70;;;;;;5031861;28;20438;-73
2022/04/27 09:49:04;;;;;;;12.88;2.70;;;11.00;96.70;;;;;;5030115;28;20645;-73
2022/04/27 09:51:32;;;;;;;11.32;2.45;;;11.00;96.60;;;;;;5029126;28;20405;-73
2022/04/27 09:54:00;;;;;;;11.93;2.85;;;11.00;96.80;;;;;;5029949;28;20706;-73
2022/04/27 09:56:33;;;;;;;11.80;2.55;;;11.00;96.70;;;;;;5029260;28;20128;-73
2022/04/27 09:59:09;;;;;;;9.43;2.72;;;11.30;96.90;;;;;;5031931;28;20049;-73
2022/04/27 10:01:36;;;;;;;18.27;2.80;;;11.00;97.00;;;;;;5039159;28;20098;-72
2022/04/27 10:04:06;;;;;;;11.98;2.60;;;11.00;97.10;;;;;;5027751;28;20037;-72
2022/04/27 10:06:32;;;;;;;11.98;2.95;;;11.00;97.30;;;;;;5032715;28;20361;-72
2022/04/27 10:09:04;;;;;;;8.07;2.20;;;11.00;97.30;;;;;;5013438;28;20041;-72
2022/04/27 10:11:33;;;;;;;10.93;2.13;;;11.00;97.20;;;;;;5023152;28;20442;-72
2022/04/27 10:14:00;;;;;;;15.18;2.47;;;10.90;97.10;;;;;;5015629;28;20049;-72
2022/04/27 10:16:27;;;;;;;14.95;2.72;;;10.90;97.10;;;;;;5016918;28;20064;-72
2022/04/27 10:18:53;;;;;;;12.93;2.63;;;10.90;97.20;;;;;;5033491;28;20053;-72
2022/04/27 10:21:56;;;;;;;13.02;2.28;;;10.90;97.20;;;;;;5049497;28;20047;-72
2022/04/27 10:24:34;;;;;;;11.10;2.17;;;10.80;97.00;;;;;;5050243;28;20162;-74
2022/04/27 10:27:20;;;;;;;16.23;2.67;;;10.80;97.10;;;;;;5027959;28;20064;-72
2022/04/27 10:30:10;;;;;;;9.55;2.72;;;10.70;97.00;;;;;;5017007;28;20048;-71
2022/04/27 10:32:43;;;;;;;15.73;2.42;;;10.70;97.10;;;;;;5018280;28;20045;-73
2022/04/27 10:35:12;;;;;;;12.50;3.00;;;10.80;97.10;;;;;;5039980;28;20052;-72
2022/04/27 10:37:54;;;;;;;15.73;2.25;;;10.80;97.20;;;;;;5029548;28;20037;-72
2022/04/27 10:40:37;;;;;;;10.25;2.92;;;10.80;97.20;;;;;;5013209;28;20085;-73
2022/04/27 10:43:04;;;;;;;13.07;2.15;;;10.80;97.20;;;;;;5010246;28;20042;-73
2022/04/27 10:45:30;;;;;;;10.98;2.67;;;10.80;97.30;;;;;;5011921;28;20049;-73
2022/04/27 10:47:56;;;;;;;15.60;3.10;;;10.90;97.20;;;;;;5029892;28;20452;-73
2022/04/27 10:50:29;;;;;;;17.52;2.53;;;10.80;97.10;;;;;;5013693;28;20435;-73
2022/04/27 10:52:55;;;;;;;12.65;2.15;;;10.80;97.10;;;;;;5034726;28;20401;-73
2022/04/27 10:55:50;;;;;;;13.05;2.30;;;10.80;97.10;;;;;;5012637;28;20041;-73
2022/04/27 10:58:22;;;;;;;9.38;2.10;;;10.90;96.70;;;;;;5032149;28;20512;-73
2022/04/27 11:03:26;;;;;;;14.18;2.20;;;10.90;96.90;;;;;;5044848;28;20156;-73
2022/04/27 11:05:52;;;;;;;11.57;2.35;;;10.90;97.10;;;;;;5043592;28;20056;-72
2022/04/27 11:08:26;;;;;;;15.43;2.28;;;11.00;96.70;;;;;;5028453;28;20401;-71
2022/04/27 11:10:55;;;;;;;9.45;2.28;;;11.00;96.50;;;;;;5046548;28;20040;-71
2022/04/27 11:13:26;;;;;;;6.75;2.20;;;11.00;96.20;;;;;;5042560;28;20037;-72
2022/04/27 11:15:52;;;;;;;11.45;2.40;;;11.00;96.10;;;;;;5046825;28;20467;-72
2022/04/27 11:18:18;;;;;;;12.70;2.33;;;11.00;96.30;;;;;;5046727;28;20029;-71
2022/04/27 11:20:43;;;;;;;9.15;2.33;;;11.10;96.10;;;;;;5029928;28;20045;-71
2022/04/27 11:23:20;;;;;;;9.85;2.95;;;11.10;96.00;;;;;;5029834;28;20041;-71
2022/04/27 11:25:51;;;;;;;12.30;2.50;;;11.10;95.70;;;;;;5035829;28;20087;-72
2022/04/27 11:28:17;;;;;;;12.63;2.45;;;11.10;95.60;;;;;;5031137;28;20392;-72
2022/04/27 11:30:43;;;;;;;14.88;2.65;;;11.10;95.40;;;;;;5030376;28;20041;-72
2022/04/27 11:33:10;;;;;;;14.63;3.08;;;11.10;95.30;;;;;;5043703;28;20065;-73
2022/04/27 11:35:42;;;;;;;12.82;2.50;;;11.20;95.50;;;;;;5048913;28;20392;-72
2022/04/27 11:38:08;;;;;;;12.00;2.80;;;11.20;95.40;;;;;;5032829;28;20099;-73
2022/04/27 11:40:37;;;;;;;11.43;2.10;;;11.30;95.00;;;;;;5030054;28;20485;-72
2022/04/27 11:43:04;;;;;;;10.63;2.17;;;11.20;95.10;;;;;;5038432;28;20093;-73
2022/04/27 11:45:30;;;;;;;15.55;2.42;;;11.30;94.90;;;;;;5037259;28;20045;-73
2022/04/27 11:48:03;;;;;;;7.05;2.17;;;11.30;94.80;;;;;;5034494;28;20503;-73
2022/04/27 11:50:34;;;;;;;11.18;2.22;;;11.30;94.90;;;;;;5033678;28;20123;-73
2022/04/27 11:53:02;;;;;;;9.30;2.38;;;11.40;95.00;;;;;;5030028;28;20109;-73
2022/04/27 11:55:28;;;;;;;11.68;2.92;;;11.40;94.90;;;;;;5036708;28;20094;-73
2022/04/27 11:57:53;;;;;;;8.15;2.15;;;11.40;94.50;;;;;;5029146;28;20056;-74
2022/04/27 12:00:21;;;;;;;11.95;2.33;;;11.50;94.70;;;;;;5031947;28;20030;-73
2022/04/27 12:02:47;;;;;;;13.13;2.75;;;11.50;94.40;;;;;;5048679;28;20048;-73
2022/04/27 12:05:15;;;;;;;9.40;2.60;;;11.50;94.20;;;;;;5054018;28;20588;-73
2022/04/27 12:07:47;;;;;;;11.38;2.50;;;11.50;94.30;;;;;;5048241;28;20527;-73
2022/04/27 12:10:15;;;;;;;11.80;2.40;;;11.60;94.30;;;;;;5072760;28;20059;-74
2022/04/27 12:12:42;;;;;;;9.88;2.55;;;11.70;94.50;;;;;;5044190;28;20052;-74
2022/04/27 12:15:14;;;;;;;9.88;2.05;;;11.80;94.70;;;;;;5067625;28;20044;-73
2022/04/27 12:17:49;;;;;;;11.82;2.13;;;11.80;94.60;;;;;;5060384;28;20052;-74
2022/04/27 12:20:26;;;;;;;12.63;2.35;;;12.00;94.20;;;;;;5052642;28;20045;-74
2022/04/27 12:22:57;;;;;;;8.88;2.70;;;12.10;94.00;;;;;;5046084;28;20060;-74
2022/04/27 12:25:52;;;;;;;10.82;2.20;;;12.10;93.90;;;;;;5050516;28;20044;-74
2022/04/27 12:28:19;;;;;;;6.80;1.67;;;12.20;93.20;;;;;;5036248;28;20558;-73
2022/04/27 12:30:52;;;;;;;9.43;1.60;;;12.20;92.60;;;;;;5050551;28;20057;-73
2022/04/27 12:33:26;;;;;;;13.02;2.30;;;12.30;92.70;;;;;;5052226;28;20044;-73
2022/04/27 12:39:03;;;;;;;12.48;2.35;;;12.40;92.70;;;;;;5067819;28;20123;-73
2022/04/27 12:41:34;;;;;;;7.18;2.08;;;12.50;92.50;;;;;;5051955;28;20040;-73
2022/04/27 12:44:07;;;;;;;9.32;2.50;;;12.60;92.30;;;;;;5050957;28;20052;-73
2022/04/27 12:46:34;;;;;;;8.88;2.53;;;12.60;92.20;;;;;;5036109;28;20207;-73
2022/04/27 12:49:07;;;;;;;6.50;1.73;;;12.70;91.90;;;;;;5041449;28;20127;-73
2022/04/27 12:51:35;;;;;;;8.55;1.80;;;12.70;91.40;;;;;;5067767;28;20138;-73
2022/04/27 12:54:05;;;;;;;10.40;2.03;;;12.70;91.10;;;;;;5052336;28;20079;-73
2022/04/27 12:56:32;;;;;;;13.65;3.40;;;12.70;91.20;;;;;;5033097;28;20059;-73
2022/04/27 12:59:05;;;;;;;10.85;2.53;;;12.80;91.20;;;;;;5035694;28;20049;-73
2022/04/27 13:01:31;;;;;;;13.50;2.47;;;12.80;91.00;;;;;;5071208;28;20090;-72
2022/04/27 13:03:57;;;;;;;15.07;3.33;;;12.80;91.00;;;;;;5069800;28;20533;-73
2022/04/27 13:06:23;;;;;;;9.35;1.80;;;12.70;91.10;;;;;;5041506;28;20074;-73
2022/04/27 13:08:52;;;;;;;14.90;2.17;;;12.70;91.20;;;;;;5064396;28;20051;-73
2022/04/27 13:14:04;;;;;;;11.45;2.10;;;12.70;90.80;;;;;;5032014;28;20048;-73
2022/04/27 13:16:29;;;;;;;11.52;2.25;;;12.70;90.90;;;;;;5032750;28;20070;-73
2022/04/27 13:18:55;;;;;;;14.82;3.15;;;12.70;90.50;;;;;;5049842;28;20430;-72